Terminal Aerodrome Forecast
Issued by NWS

Home | Current Version | Previous Version | Text Only | Print | Product List | Glossary On
Versions: 1 2 3 4 5 6 7 8 9 10 11 12 13
877
FTUS44 KLUB 291720
TAFCDS
TAF
KCDS 291720Z 2918/3018 19011KT P6SM SCT040
      TEMPO 2920/2924 VRB20G40KT TSRA BKN040CB
     FM300000 06015KT P6SM SCT035 BKN200=

USA.gov is the U.S. government's official web portal to all federal, state and local government web resources and services.